createdAt,value
2023-04-18T00:01:24.913Z,2.03
2023-04-18T00:03:51.653Z,2.07
2023-04-18T00:06:18.139Z,2.28
2023-04-18T00:08:44.596Z,2.05
2023-04-18T00:11:11.172Z,2.40
2023-04-18T00:13:39.385Z,2.50
2023-04-18T00:16:08.581Z,2.40
2023-04-18T00:18:36.848Z,2.45
2023-04-18T00:21:04.383Z,2.53
2023-04-18T00:23:31.149Z,2.03
2023-04-18T00:25:57.720Z,2.50
2023-04-18T00:28:24.198Z,2.77
2023-04-18T00:30:50.733Z,3.50
2023-04-18T00:33:17.236Z,3.10
2023-04-18T00:35:43.607Z,3.40
2023-04-18T00:38:10.155Z,4.03
2023-04-18T00:40:36.781Z,3.30
2023-04-18T00:43:03.371Z,2.70
2023-04-18T00:45:29.876Z,3.08
2023-04-18T00:47:56.350Z,3.40
2023-04-18T00:50:23.633Z,2.55
2023-04-18T00:52:50.081Z,2.70
2023-04-18T00:55:16.657Z,2.30
2023-04-18T00:57:43.018Z,2.25
2023-04-18T01:00:10.644Z,2.33
2023-04-18T01:02:37.529Z,2.33
2023-04-18T01:05:04.918Z,2.40
2023-04-18T01:07:33.449Z,2.60
2023-04-18T01:10:00.462Z,1.98
2023-04-18T01:12:26.965Z,2.30
2023-04-18T01:14:53.394Z,2.22
2023-04-18T01:17:19.882Z,4.27
2023-04-18T01:19:47.344Z,3.28
2023-04-18T01:22:14.355Z,3.05
2023-04-18T01:24:41.020Z,2.75
2023-04-18T01:27:07.651Z,3.13
2023-04-18T01:29:34.052Z,2.30
2023-04-18T01:32:02.457Z,2.40
2023-04-18T01:34:28.851Z,2.67
2023-04-18T01:36:55.328Z,2.65
2023-04-18T01:39:21.714Z,2.90
2023-04-18T01:41:48.113Z,2.83
2023-04-18T01:44:14.718Z,2.78
2023-04-18T01:46:41.357Z,2.85
2023-04-18T01:49:08.016Z,2.97
2023-04-18T01:51:34.446Z,3.50
2023-04-18T01:54:00.845Z,2.13
2023-04-18T01:56:27.217Z,2.10
2023-04-18T01:58:53.595Z,2.45
2023-04-18T02:01:20.153Z,2.42
2023-04-18T02:03:46.923Z,2.47
2023-04-18T02:06:13.504Z,2.83
2023-04-18T02:08:39.949Z,2.53
2023-04-18T02:11:06.384Z,1.77
2023-04-18T02:13:32.984Z,2.05
2023-04-18T02:15:59.447Z,2.33
2023-04-18T02:18:26.643Z,3.47
2023-04-18T02:20:53.026Z,3.08
2023-04-18T02:23:19.533Z,3.75
2023-04-18T02:25:45.929Z,2.70
2023-04-18T02:28:12.404Z,3.47
2023-04-18T02:30:38.932Z,2.53
2023-04-18T02:33:05.533Z,2.40
2023-04-18T02:35:32.026Z,2.67
2023-04-18T02:37:58.395Z,2.92
2023-04-18T02:40:24.789Z,5.50
2023-04-18T02:42:51.164Z,2.70
2023-04-18T02:45:17.677Z,3.00
2023-04-18T02:47:54.522Z,2.83
2023-04-18T02:50:22.914Z,2.78
2023-04-18T02:52:49.371Z,2.80
2023-04-18T02:55:16.213Z,3.37
2023-04-18T02:57:42.690Z,3.28
2023-04-18T03:00:09.435Z,2.70
2023-04-18T03:02:36.104Z,3.70
2023-04-18T03:05:02.880Z,2.88
2023-04-18T03:07:30.902Z,3.07
2023-04-18T03:09:57.542Z,3.55
2023-04-18T03:12:23.982Z,3.45
2023-04-18T03:14:50.481Z,5.13
2023-04-18T03:17:17.086Z,3.83
2023-04-18T03:19:44.937Z,3.73
2023-04-18T03:22:11.423Z,2.92
2023-04-18T03:24:37.840Z,3.67
2023-04-18T03:27:04.315Z,3.35
2023-04-18T03:29:31.124Z,3.70
2023-04-18T03:31:57.603Z,4.00
2023-04-18T03:34:24.319Z,3.80
2023-04-18T03:36:50.822Z,4.70
2023-04-18T03:39:17.280Z,4.18
2023-04-18T03:41:43.758Z,3.45
2023-04-18T03:44:10.422Z,4.77
2023-04-18T03:46:36.977Z,3.47
2023-04-18T03:49:03.568Z,3.95
2023-04-18T03:51:33.164Z,3.72
2023-04-18T03:53:59.553Z,3.80
2023-04-18T03:56:26.330Z,3.57
2023-04-18T03:58:52.743Z,4.05
2023-04-18T04:01:19.176Z,3.50
2023-04-18T04:03:45.865Z,3.95
2023-04-18T04:06:12.336Z,3.63
2023-04-18T04:08:38.767Z,3.13
2023-04-18T04:11:05.272Z,3.00
2023-04-18T04:13:31.698Z,4.00
2023-04-18T04:15:58.207Z,3.88
2023-04-18T04:18:30.925Z,4.45
2023-04-18T04:20:57.973Z,3.63
2023-04-18T04:23:25.542Z,2.85
2023-04-18T04:25:53.420Z,2.63
2023-04-18T04:28:22.751Z,3.17
2023-04-18T04:30:50.797Z,2.95
2023-04-18T04:33:18.564Z,2.90
2023-04-18T04:35:47.371Z,3.30
2023-04-18T04:38:15.315Z,3.13
2023-04-18T04:40:42.257Z,4.55
2023-04-18T04:43:12.843Z,4.03
2023-04-18T04:45:41.434Z,5.20
2023-04-18T04:48:08.263Z,4.13
2023-04-18T04:50:35.822Z,4.38
2023-04-18T04:53:02.245Z,3.75
2023-04-18T04:55:28.633Z,5.57
2023-04-18T04:57:55.929Z,4.77
2023-04-18T05:00:22.573Z,3.80
2023-04-18T05:02:49.518Z,6.70
2023-04-18T05:05:16.291Z,6.47
2023-04-18T05:07:43.734Z,3.47
2023-04-18T05:10:11.076Z,7.93
2023-04-18T05:12:37.498Z,12.27
2023-04-18T05:15:04.060Z,3.65
2023-04-18T05:17:30.513Z,3.63
2023-04-18T05:19:56.931Z,14.88
2023-04-18T05:22:23.368Z,11.87
2023-04-18T05:24:49.807Z,9.20
2023-04-18T05:27:18.139Z,10.27
2023-04-18T05:29:44.669Z,22.73
2023-04-18T05:32:11.970Z,15.82
2023-04-18T05:34:38.977Z,20.03
2023-04-18T05:37:05.819Z,21.45
2023-04-18T05:39:32.500Z,20.77
2023-04-18T05:41:59.029Z,23.23
2023-04-18T05:44:25.510Z,21.20
2023-04-18T05:46:53.858Z,23.40
2023-04-18T05:49:20.692Z,18.98
2023-04-18T05:51:49.599Z,17.52
2023-04-18T05:54:16.647Z,21.98
2023-04-18T05:56:43.222Z,21.60
2023-04-18T05:59:09.658Z,21.77
2023-04-18T06:01:36.131Z,27.30
2023-04-18T06:04:02.739Z,32.50
2023-04-18T06:06:29.321Z,18.80
2023-04-18T06:08:55.741Z,30.23
2023-04-18T06:11:22.672Z,31.77
2023-04-18T06:13:49.275Z,35.38
2023-04-18T06:16:16.105Z,27.83
2023-04-18T06:18:42.549Z,33.17
2023-04-18T06:21:08.970Z,34.05
2023-04-18T06:23:35.656Z,35.27
2023-04-18T06:26:02.127Z,39.03
2023-04-18T06:28:28.535Z,38.40
2023-04-18T06:30:54.916Z,37.08
2023-04-18T06:33:21.506Z,31.45
2023-04-18T06:35:47.922Z,25.23
2023-04-18T06:38:14.441Z,17.77
2023-04-18T06:40:40.889Z,24.65
2023-04-18T06:43:07.616Z,21.83
2023-04-18T06:45:34.328Z,19.60
2023-04-18T06:48:02.643Z,22.00
2023-04-18T06:50:29.557Z,20.38
2023-04-18T06:52:56.061Z,20.60
2023-04-18T06:55:24.083Z,22.50
2023-04-18T06:57:50.532Z,18.40
2023-04-18T07:00:17.128Z,17.97
2023-04-18T07:02:43.710Z,16.52
2023-04-18T07:05:10.819Z,18.30
2023-04-18T07:07:37.274Z,16.15
2023-04-18T07:10:04.836Z,16.08
2023-04-18T07:12:31.268Z,11.60
2023-04-18T07:14:57.752Z,14.13
2023-04-18T07:17:24.258Z,14.38
2023-04-18T07:19:50.820Z,13.68
2023-04-18T07:22:17.243Z,12.93
2023-04-18T07:24:44.192Z,11.87
2023-04-18T07:27:10.597Z,12.18
2023-04-18T07:29:37.127Z,9.82
2023-04-18T07:32:04.472Z,10.13
2023-04-18T07:34:31.731Z,9.73
2023-04-18T07:36:58.204Z,8.17
2023-04-18T07:39:24.613Z,9.60
2023-04-18T07:41:51.195Z,7.97
2023-04-18T07:44:18.253Z,7.32
2023-04-18T07:46:44.920Z,8.38
2023-04-18T07:49:11.603Z,9.63
2023-04-18T07:51:38.168Z,7.50
2023-04-18T07:54:04.744Z,7.85
2023-04-18T07:56:31.197Z,6.90
2023-04-18T07:58:57.595Z,4.85
2023-04-18T08:01:27.101Z,4.13
2023-04-18T08:03:55.070Z,2.95
2023-04-18T08:06:21.670Z,2.55
2023-04-18T08:08:48.182Z,2.97
2023-04-18T08:11:14.723Z,2.30
2023-04-18T08:13:41.222Z,2.60
2023-04-18T08:16:08.842Z,2.92
2023-04-18T08:18:35.855Z,5.75
2023-04-18T08:21:02.227Z,2.88
2023-04-18T08:23:29.284Z,3.38
2023-04-18T08:25:55.801Z,3.93
2023-04-18T08:28:22.275Z,3.20
2023-04-18T08:30:49.191Z,3.63
2023-04-18T08:33:18.406Z,3.47
2023-04-18T08:35:45.168Z,2.92
2023-04-18T08:38:11.619Z,2.60
2023-04-18T08:40:38.575Z,2.50
2023-04-18T08:43:07.947Z,3.55
2023-04-18T08:45:34.545Z,2.47
2023-04-18T08:48:03.419Z,2.55
2023-04-18T08:50:30.098Z,2.30
2023-04-18T08:52:56.774Z,2.45
2023-04-18T08:55:23.254Z,3.03
2023-04-18T08:57:54.041Z,4.32
2023-04-18T09:00:20.655Z,3.05
2023-04-18T09:02:47.461Z,2.90
2023-04-18T09:05:15.049Z,4.97
2023-04-18T09:07:42.041Z,3.55
2023-04-18T09:10:09.917Z,2.97
2023-04-18T09:12:50.260Z,6.10
2023-04-18T09:15:17.812Z,3.33
2023-04-18T09:17:49.497Z,3.22
2023-04-18T09:20:25.872Z,3.53
2023-04-18T09:22:54.313Z,3.92
2023-04-18T09:25:29.778Z,4.20
2023-04-18T09:28:00.658Z,3.33
2023-04-18T09:30:32.124Z,4.22
2023-04-18T09:33:00.126Z,4.35
2023-04-18T09:35:27.080Z,3.10
2023-04-18T09:37:53.707Z,3.83
2023-04-18T09:40:20.298Z,2.97
2023-04-18T09:42:48.037Z,3.42
2023-04-18T09:45:15.500Z,3.97
2023-04-18T09:47:41.983Z,3.03
2023-04-18T09:50:09.405Z,3.58
2023-04-18T09:52:37.057Z,3.47
2023-04-18T09:55:04.672Z,4.40
2023-04-18T09:57:31.876Z,3.13
2023-04-18T10:00:10.728Z,4.05
2023-04-18T10:02:44.592Z,3.83
2023-04-18T10:05:12.256Z,3.63
2023-04-18T10:07:38.797Z,2.78
2023-04-18T10:10:05.836Z,3.60
2023-04-18T10:12:32.415Z,4.30
2023-04-18T10:14:59.769Z,3.85
2023-04-18T10:17:28.809Z,4.33
2023-04-18T10:20:03.964Z,3.17
2023-04-18T10:22:30.820Z,2.83
2023-04-18T10:24:57.477Z,3.38
2023-04-18T10:27:32.906Z,3.92
2023-04-18T10:29:59.315Z,3.70
2023-04-18T10:32:27.844Z,2.03
2023-04-18T10:34:54.453Z,3.30
2023-04-18T10:37:20.915Z,3.08
2023-04-18T10:39:49.572Z,3.35
2023-04-18T10:42:16.028Z,2.00
2023-04-18T10:44:42.515Z,3.22
2023-04-18T10:47:23.089Z,2.30
2023-04-18T10:49:53.408Z,2.90
2023-04-18T10:52:19.844Z,2.90
2023-04-18T10:54:50.899Z,3.47
2023-04-18T10:57:17.329Z,3.42
2023-04-18T10:59:48.122Z,4.38
2023-04-18T11:02:24.324Z,3.45
2023-04-18T11:04:51.456Z,2.88
2023-04-18T11:07:17.936Z,3.13
2023-04-18T11:09:52.183Z,2.70
2023-04-18T11:12:18.578Z,3.15
2023-04-18T11:14:45.972Z,4.40
2023-04-18T11:17:16.168Z,2.90
2023-04-18T11:19:43.298Z,2.83
2023-04-18T11:22:09.861Z,2.60
2023-04-18T11:24:36.606Z,2.58
2023-04-18T11:27:04.259Z,2.95
2023-04-18T11:29:30.968Z,2.50
2023-04-18T11:31:58.541Z,2.73
2023-04-18T11:34:30.189Z,3.10
2023-04-18T11:36:56.710Z,2.72
2023-04-18T11:39:23.231Z,3.30
2023-04-18T11:41:50.815Z,2.50
2023-04-18T11:44:18.512Z,3.03
2023-04-18T11:46:45.091Z,2.30
2023-04-18T11:49:20.553Z,2.22
2023-04-18T11:51:47.988Z,2.75
2023-04-18T11:54:23.400Z,2.67
2023-04-18T11:56:49.807Z,2.47
2023-04-18T11:59:16.208Z,3.00
2023-04-18T12:01:42.863Z,3.67
2023-04-18T12:04:09.667Z,3.15
2023-04-18T12:06:45.139Z,3.03
2023-04-18T12:09:15.256Z,3.50
2023-04-18T12:11:42.504Z,3.45
2023-04-18T12:14:17.860Z,4.43
2023-04-18T12:16:44.225Z,2.88
2023-04-18T12:19:11.287Z,3.22
2023-04-18T12:21:53.915Z,4.13
2023-04-18T12:24:21.341Z,2.95
2023-04-18T12:26:48.534Z,2.50
2023-04-18T12:29:15.047Z,2.78
2023-04-18T12:31:41.573Z,3.63
2023-04-18T12:34:07.987Z,3.13
2023-04-18T12:36:34.485Z,2.75
2023-04-18T12:39:00.965Z,2.55
2023-04-18T12:41:27.387Z,2.80
2023-04-18T12:43:53.809Z,2.60
2023-04-18T12:46:20.260Z,2.63
2023-04-18T12:48:46.834Z,2.10
2023-04-18T12:51:13.233Z,2.58
2023-04-18T12:53:39.650Z,1.80
2023-04-18T12:56:06.197Z,2.85
2023-04-18T12:58:32.671Z,2.93
2023-04-18T13:00:59.737Z,2.72
2023-04-18T13:03:26.475Z,2.20
2023-04-18T13:05:54.014Z,2.55
2023-04-18T13:08:20.455Z,2.55
2023-04-18T13:10:47.585Z,2.90
2023-04-18T13:13:14.374Z,3.85
2023-04-18T13:15:41.207Z,2.92
2023-04-18T13:18:09.467Z,2.70
2023-04-18T13:20:36.642Z,2.90
2023-04-18T13:23:03.212Z,2.33
2023-04-18T13:25:29.672Z,2.85
2023-04-18T13:27:58.519Z,4.05
2023-04-18T13:30:25.109Z,3.05
2023-04-18T13:32:51.762Z,3.10
2023-04-18T13:35:18.257Z,3.77
2023-04-18T13:37:44.703Z,3.97
2023-04-18T13:40:11.466Z,3.30
2023-04-18T13:42:38.590Z,3.63
2023-04-18T13:45:05.305Z,4.03
2023-04-18T13:47:31.771Z,3.17
2023-04-18T13:49:58.916Z,3.47
2023-04-18T13:52:25.931Z,3.42
2023-04-18T13:54:52.511Z,3.60
2023-04-18T13:57:18.905Z,3.92
2023-04-18T13:59:45.369Z,3.37
2023-04-18T14:02:12.232Z,3.15
2023-04-18T14:04:39.032Z,2.97
2023-04-18T14:07:08.129Z,2.80
2023-04-18T14:09:34.736Z,2.90
2023-04-18T14:12:02.039Z,3.10
2023-04-18T14:14:28.461Z,2.10
2023-04-18T14:16:54.883Z,3.47
2023-04-18T14:19:21.618Z,3.42
2023-04-18T14:21:48.874Z,3.50
2023-04-18T14:24:15.384Z,3.43
2023-04-18T14:26:41.883Z,3.78
2023-04-18T14:29:08.346Z,3.30
2023-04-18T14:31:34.887Z,3.20
2023-04-18T14:34:01.330Z,3.00
2023-04-18T14:36:27.832Z,3.30
2023-04-18T14:38:55.120Z,3.05
2023-04-18T14:41:21.655Z,2.05
2023-04-18T14:43:48.245Z,2.90
2023-04-18T14:46:16.546Z,3.10
2023-04-18T14:48:44.627Z,4.27
2023-04-18T14:51:11.108Z,3.80
2023-04-18T14:53:37.588Z,3.15
2023-04-18T14:56:04.053Z,3.50
2023-04-18T14:58:30.495Z,6.35
2023-04-18T15:00:56.876Z,3.70
2023-04-18T15:03:23.460Z,3.60
2023-04-18T15:05:50.057Z,2.85
2023-04-18T15:08:16.501Z,4.00
2023-04-18T15:10:43.105Z,4.55
2023-04-18T15:13:09.794Z,2.97
2023-04-18T15:15:37.705Z,3.53
2023-04-18T15:18:04.313Z,2.78
2023-04-18T15:20:31.155Z,3.80
2023-04-18T15:22:57.575Z,3.60
2023-04-18T15:25:24.025Z,3.60
2023-04-18T15:27:50.638Z,2.90
2023-04-18T15:30:17.015Z,3.22
2023-04-18T15:32:44.347Z,3.33
2023-04-18T15:35:11.278Z,3.55
2023-04-18T15:37:37.668Z,2.87
2023-04-18T15:40:07.008Z,3.20
2023-04-18T15:42:33.663Z,2.22
2023-04-18T15:45:00.376Z,3.03
2023-04-18T15:47:27.189Z,4.15
2023-04-18T15:49:53.734Z,4.33
2023-04-18T15:52:20.118Z,2.67
2023-04-18T15:54:46.606Z,3.33
2023-04-18T15:57:12.982Z,2.95
2023-04-18T15:59:39.390Z,3.58
2023-04-18T16:02:07.234Z,3.50
2023-04-18T16:04:33.811Z,3.25
2023-04-18T16:07:00.511Z,2.78
2023-04-18T16:09:27.025Z,3.10
2023-04-18T16:11:53.429Z,3.35
2023-04-18T16:14:19.847Z,3.37
2023-04-18T16:16:46.303Z,3.75
2023-04-18T16:19:12.770Z,3.38
2023-04-18T16:21:39.163Z,3.33
2023-04-18T16:24:05.770Z,2.80
2023-04-18T16:26:32.173Z,2.70
2023-04-18T16:28:58.586Z,3.45
2023-04-18T16:31:25.022Z,2.63
2023-04-18T16:33:52.814Z,3.90
2023-04-18T16:36:19.462Z,3.63
2023-04-18T16:38:46.716Z,2.80
2023-04-18T16:41:13.203Z,2.25
2023-04-18T16:43:39.597Z,2.42
2023-04-18T16:46:06.093Z,2.47
2023-04-18T16:48:32.535Z,2.97
2023-04-18T16:50:59.008Z,3.37
2023-04-18T16:53:25.494Z,2.67
2023-04-18T16:55:53.073Z,3.33
2023-04-18T16:58:20.249Z,2.38
2023-04-18T17:00:47.113Z,3.25
2023-04-18T17:03:14.265Z,2.33
2023-04-18T17:05:40.979Z,2.65
2023-04-18T17:08:07.470Z,2.55
2023-04-18T17:10:34.406Z,3.28
2023-04-18T17:13:01.643Z,2.75
2023-04-18T17:15:28.051Z,2.77
2023-04-18T17:17:56.471Z,2.25
2023-04-18T17:20:23.539Z,2.15
2023-04-18T17:22:49.937Z,1.52
2023-04-18T17:25:16.722Z,3.65
2023-04-18T17:27:43.176Z,2.97
2023-04-18T17:30:09.908Z,2.67
2023-04-18T17:32:36.396Z,3.35
2023-04-18T17:35:06.067Z,3.10
2023-04-18T17:37:32.487Z,2.88
2023-04-18T17:40:00.369Z,4.10
2023-04-18T17:42:26.849Z,3.38
2023-04-18T17:44:53.226Z,4.78
2023-04-18T17:47:19.870Z,4.40
2023-04-18T17:49:46.499Z,3.45
2023-04-18T17:52:12.960Z,3.13
2023-04-18T17:54:39.410Z,4.00
2023-04-18T17:57:05.798Z,3.40
2023-04-18T17:59:37.468Z,4.60
2023-04-18T18:02:04.846Z,5.40
2023-04-18T18:04:31.793Z,2.77
2023-04-18T18:06:58.707Z,2.97
2023-04-18T18:09:25.139Z,1.75
2023-04-18T18:11:53.434Z,2.03
2023-04-18T18:14:21.331Z,1.98
2023-04-18T18:16:47.766Z,2.70
2023-04-18T18:19:15.046Z,2.15
2023-04-18T18:21:42.026Z,2.10
2023-04-18T18:24:08.459Z,1.80
2023-04-18T18:26:36.234Z,2.40
2023-04-18T18:29:09.133Z,2.60
2023-04-18T18:31:36.048Z,2.63
2023-04-18T18:34:02.466Z,2.67
2023-04-18T18:36:28.876Z,2.47
2023-04-18T18:38:55.411Z,1.77
2023-04-18T18:41:22.920Z,2.57
2023-04-18T18:43:49.627Z,2.17
2023-04-18T18:46:16.106Z,3.35
2023-04-18T18:48:42.596Z,3.60
2023-04-18T18:51:09.300Z,3.88
2023-04-18T18:53:36.827Z,2.23
2023-04-18T18:56:04.892Z,2.42
2023-04-18T18:58:31.265Z,2.28
2023-04-18T19:00:59.822Z,2.33
2023-04-18T19:03:26.357Z,2.70
2023-04-18T19:05:52.800Z,1.83
2023-04-18T19:08:19.228Z,2.47
2023-04-18T19:10:45.637Z,2.38
2023-04-18T19:13:12.099Z,3.45
2023-04-18T19:15:38.492Z,3.25
2023-04-18T19:18:04.984Z,4.00
2023-04-18T19:20:32.113Z,3.05
2023-04-18T19:22:58.470Z,3.05
2023-04-18T19:25:24.875Z,2.47
2023-04-18T19:27:51.266Z,2.60
2023-04-18T19:30:17.646Z,2.53
2023-04-18T19:32:44.413Z,2.40
2023-04-18T19:35:13.148Z,3.38
2023-04-18T19:37:39.550Z,3.55
2023-04-18T19:40:06.853Z,3.08
2023-04-18T19:42:33.345Z,2.80
2023-04-18T19:45:00.311Z,2.92
2023-04-18T19:47:27.921Z,2.00
2023-04-18T19:49:54.362Z,2.30
2023-04-18T19:52:20.778Z,2.22
2023-04-18T19:54:47.191Z,3.37
2023-04-18T19:57:13.611Z,3.42
2023-04-18T19:59:40.071Z,3.20
2023-04-18T20:02:06.740Z,3.17
2023-04-18T20:04:34.393Z,2.47
2023-04-18T20:07:02.422Z,3.40
2023-04-18T20:09:28.834Z,3.08
2023-04-18T20:11:55.541Z,3.25
2023-04-18T20:14:21.939Z,2.22
2023-04-18T20:16:49.623Z,3.50
2023-04-18T20:19:17.886Z,2.70
2023-04-18T20:21:44.503Z,4.55
2023-04-18T20:24:11.007Z,48.40
2023-04-18T20:26:37.430Z,206.82
2023-04-18T20:29:04.043Z,94.30
2023-04-18T20:31:30.433Z,4.70
2023-04-18T20:33:56.837Z,5.53
2023-04-18T20:36:24.404Z,9.00
2023-04-18T20:38:50.801Z,6.57
2023-04-18T20:41:18.855Z,6.18
2023-04-18T20:43:46.842Z,4.00
2023-04-18T20:46:14.013Z,4.97
2023-04-18T20:48:40.516Z,3.50
2023-04-18T20:51:06.947Z,4.38
2023-04-18T20:53:34.172Z,6.25
2023-04-18T20:56:01.132Z,6.30
2023-04-18T20:58:27.585Z,12.15
2023-04-18T21:00:53.963Z,18.92
2023-04-18T21:03:20.564Z,16.95
2023-04-18T21:05:47.203Z,17.83
2023-04-18T21:08:13.630Z,17.20
2023-04-18T21:10:40.060Z,20.85
2023-04-18T21:13:06.672Z,20.58
2023-04-18T21:15:34.302Z,18.38
2023-04-18T21:18:00.822Z,9.35
2023-04-18T21:20:27.256Z,8.07
2023-04-18T21:22:53.699Z,23.52
2023-04-18T21:25:21.315Z,17.92
2023-04-18T21:27:47.880Z,8.32
2023-04-18T21:30:14.373Z,12.00
2023-04-18T21:32:40.757Z,21.83
2023-04-18T21:35:07.272Z,21.65
2023-04-18T21:37:34.336Z,20.80
2023-04-18T21:40:01.258Z,10.45
2023-04-18T21:42:27.642Z,9.85
2023-04-18T21:44:54.876Z,13.73
2023-04-18T21:47:21.355Z,17.17
2023-04-18T21:49:48.509Z,21.17
2023-04-18T21:52:14.921Z,21.17
2023-04-18T21:54:41.874Z,41.67
2023-04-18T21:57:08.340Z,49.37
2023-04-18T21:59:34.733Z,59.65
2023-04-18T22:02:01.280Z,45.35
2023-04-18T22:04:28.000Z,41.58
2023-04-18T22:06:54.604Z,33.75
2023-04-18T22:09:21.344Z,36.80
2023-04-18T22:11:47.991Z,29.52
2023-04-18T22:14:16.487Z,21.02
2023-04-18T22:16:44.972Z,43.47
2023-04-18T22:19:11.912Z,51.22
2023-04-18T22:21:38.345Z,93.70
2023-04-18T22:24:04.919Z,31.83
2023-04-18T22:26:31.330Z,17.55
2023-04-18T22:28:57.753Z,13.63
2023-04-18T22:31:24.398Z,11.38
2023-04-18T22:33:50.935Z,11.03
2023-04-18T22:36:17.317Z,10.27
2023-04-18T22:38:43.708Z,11.57
2023-04-18T22:41:10.142Z,8.95
2023-04-18T22:43:36.568Z,9.32
2023-04-18T22:46:03.532Z,9.27
2023-04-18T22:48:30.040Z,8.40
2023-04-18T22:50:56.525Z,8.48
2023-04-18T22:53:22.920Z,7.78
2023-04-18T22:55:49.284Z,7.18
2023-04-18T22:58:15.759Z,7.17
2023-04-18T23:00:42.190Z,5.93
2023-04-18T23:03:08.735Z,6.20
2023-04-18T23:05:35.441Z,5.72
2023-04-18T23:08:01.978Z,4.53
2023-04-18T23:10:28.462Z,5.57
2023-04-18T23:12:54.869Z,5.70
2023-04-18T23:15:22.825Z,5.82
2023-04-18T23:17:51.313Z,4.65
2023-04-18T23:20:17.826Z,4.15
2023-04-18T23:22:44.236Z,4.10
2023-04-18T23:25:10.677Z,4.43
2023-04-18T23:27:37.145Z,4.63
2023-04-18T23:30:03.652Z,4.20
2023-04-18T23:32:30.195Z,3.50
2023-04-18T23:34:56.616Z,3.50
2023-04-18T23:37:23.076Z,3.85
2023-04-18T23:39:49.575Z,4.20
2023-04-18T23:42:16.035Z,3.20
2023-04-18T23:44:42.424Z,3.97
2023-04-18T23:47:08.949Z,2.70
2023-04-18T23:49:35.441Z,2.97
2023-04-18T23:52:01.850Z,3.15
2023-04-18T23:54:28.325Z,2.55
2023-04-18T23:56:54.732Z,2.35
2023-04-18T23:59:21.170Z,3.30
